sensor_id;sensor_type;location;lat;lon;timestamp;temperature;humidity
13336;DHT22;6737;51.480;11.962;2023-08-30T00:00:52;15.00;99.90
13336;DHT22;6737;51.480;11.962;2023-08-30T00:03:18;14.90;99.90
13336;DHT22;6737;51.480;11.962;2023-08-30T00:05:45;14.90;99.90
13336;DHT22;6737;51.480;11.962;2023-08-30T00:08:10;14.90;99.90
13336;DHT22;6737;51.480;11.962;2023-08-30T00:10:36;14.90;99.90
13336;DHT22;6737;51.480;11.962;2023-08-30T00:13:03;14.80;99.90
13336;DHT22;6737;51.480;11.962;2023-08-30T00:15:29;14.80;99.90
13336;DHT22;6737;51.480;11.962;2023-08-30T00:17:55;14.80;99.90
13336;DHT22;6737;51.480;11.962;2023-08-30T00:20:21;14.70;99.90
13336;DHT22;6737;51.480;11.962;2023-08-30T00:22:47;14.70;99.90
13336;DHT22;6737;51.480;11.962;2023-08-30T00:25:16;14.80;99.90
13336;DHT22;6737;51.480;11.962;2023-08-30T00:27:42;14.80;99.90
13336;DHT22;6737;51.480;11.962;2023-08-30T00:30:08;14.70;99.90
13336;DHT22;6737;51.480;11.962;2023-08-30T00:32:35;14.60;99.90
13336;DHT22;6737;51.480;11.962;2023-08-30T00:35:01;14.60;99.90
13336;DHT22;6737;51.480;11.962;2023-08-30T00:37:27;14.70;99.90
13336;DHT22;6737;51.480;11.962;2023-08-30T00:39:53;14.60;99.90
13336;DHT22;6737;51.480;11.962;2023-08-30T00:42:19;14.70;99.90
13336;DHT22;6737;51.480;11.962;2023-08-30T00:44:44;14.60;99.90
13336;DHT22;6737;51.480;11.962;2023-08-30T00:47:10;14.60;99.90
13336;DHT22;6737;51.480;11.962;2023-08-30T00:49:36;14.60;99.90
13336;DHT22;6737;51.480;11.962;2023-08-30T00:52:07;14.60;99.90
13336;DHT22;6737;51.480;11.962;2023-08-30T00:54:34;14.60;99.90
13336;DHT22;6737;51.480;11.962;2023-08-30T00:57:01;14.50;99.90
13336;DHT22;6737;51.480;11.962;2023-08-30T00:59:27;14.50;99.90
13336;DHT22;6737;51.480;11.962;2023-08-30T01:01:55;14.50;99.90
13336;DHT22;6737;51.480;11.962;2023-08-30T01:04:21;14.50;99.90
13336;DHT22;6737;51.480;11.962;2023-08-30T01:06:49;14.50;99.90
13336;DHT22;6737;51.480;11.962;2023-08-30T01:09:15;14.40;99.90
13336;DHT22;6737;51.480;11.962;2023-08-30T01:12:13;14.40;99.90
13336;DHT22;6737;51.480;11.962;2023-08-30T01:15:06;14.40;99.90
13336;DHT22;6737;51.480;11.962;2023-08-30T01:17:33;14.40;99.90
13336;DHT22;6737;51.480;11.962;2023-08-30T01:20:03;14.40;99.90
13336;DHT22;6737;51.480;11.962;2023-08-30T01:28:31;14.40;99.90
13336;DHT22;6737;51.480;11.962;2023-08-30T01:30:59;14.40;99.90
13336;DHT22;6737;51.480;11.962;2023-08-30T01:33:26;14.30;99.90
13336;DHT22;6737;51.480;11.962;2023-08-30T01:35:57;14.30;99.90
13336;DHT22;6737;51.480;11.962;2023-08-30T01:38:26;14.30;99.90
13336;DHT22;6737;51.480;11.962;2023-08-30T01:40:53;14.30;99.90
13336;DHT22;6737;51.480;11.962;2023-08-30T01:43:21;14.30;99.90
13336;DHT22;6737;51.480;11.962;2023-08-30T01:45:47;14.20;99.90
13336;DHT22;6737;51.480;11.962;2023-08-30T01:48:15;14.10;99.90
13336;DHT22;6737;51.480;11.962;2023-08-30T01:50:43;14.10;99.90
13336;DHT22;6737;51.480;11.962;2023-08-30T01:53:13;14.00;99.90
13336;DHT22;6737;51.480;11.962;2023-08-30T01:55:39;14.00;99.90
13336;DHT22;6737;51.480;11.962;2023-08-30T01:58:07;13.90;99.90
13336;DHT22;6737;51.480;11.962;2023-08-30T02:00:33;14.00;99.90
13336;DHT22;6737;51.480;11.962;2023-08-30T02:02:59;14.00;99.90
13336;DHT22;6737;51.480;11.962;2023-08-30T02:05:24;14.10;99.90
13336;DHT22;6737;51.480;11.962;2023-08-30T02:08:19;14.10;99.90
13336;DHT22;6737;51.480;11.962;2023-08-30T02:10:52;14.10;99.90
13336;DHT22;6737;51.480;11.962;2023-08-30T02:13:25;14.00;99.90
13336;DHT22;6737;51.480;11.962;2023-08-30T02:15:54;13.90;99.90
13336;DHT22;6737;51.480;11.962;2023-08-30T02:18:20;13.80;99.90
13336;DHT22;6737;51.480;11.962;2023-08-30T02:20:46;13.80;99.90
13336;DHT22;6737;51.480;11.962;2023-08-30T02:23:12;13.90;99.90
13336;DHT22;6737;51.480;11.962;2023-08-30T02:25:38;13.90;99.90
13336;DHT22;6737;51.480;11.962;2023-08-30T02:28:04;13.80;99.90
13336;DHT22;6737;51.480;11.962;2023-08-30T02:30:30;13.70;99.90
13336;DHT22;6737;51.480;11.962;2023-08-30T02:32:55;13.60;99.90
13336;DHT22;6737;51.480;11.962;2023-08-30T02:35:21;13.60;99.90
13336;DHT22;6737;51.480;11.962;2023-08-30T02:37:47;13.60;99.90
13336;DHT22;6737;51.480;11.962;2023-08-30T02:40:12;13.70;99.90
13336;DHT22;6737;51.480;11.962;2023-08-30T02:42:38;13.60;99.90
13336;DHT22;6737;51.480;11.962;2023-08-30T02:45:04;13.60;99.90
13336;DHT22;6737;51.480;11.962;2023-08-30T02:47:30;13.60;99.90
13336;DHT22;6737;51.480;11.962;2023-08-30T02:49:56;13.60;99.90
13336;DHT22;6737;51.480;11.962;2023-08-30T02:52:21;13.60;99.90
13336;DHT22;6737;51.480;11.962;2023-08-30T02:54:47;13.40;99.90
13336;DHT22;6737;51.480;11.962;2023-08-30T02:57:13;13.50;99.90
13336;DHT22;6737;51.480;11.962;2023-08-30T02:59:39;13.50;99.90
13336;DHT22;6737;51.480;11.962;2023-08-30T03:02:04;13.50;99.90
13336;DHT22;6737;51.480;11.962;2023-08-30T03:04:30;13.40;99.90
13336;DHT22;6737;51.480;11.962;2023-08-30T03:06:56;13.30;99.90
13336;DHT22;6737;51.480;11.962;2023-08-30T03:09:22;13.30;99.90
13336;DHT22;6737;51.480;11.962;2023-08-30T03:11:47;13.30;99.90
13336;DHT22;6737;51.480;11.962;2023-08-30T03:14:13;13.30;99.90
13336;DHT22;6737;51.480;11.962;2023-08-30T03:16:41;13.30;99.90
13336;DHT22;6737;51.480;11.962;2023-08-30T03:19:07;13.30;99.90
13336;DHT22;6737;51.480;11.962;2023-08-30T03:21:32;13.40;99.90
13336;DHT22;6737;51.480;11.962;2023-08-30T03:23:58;13.40;99.90
13336;DHT22;6737;51.480;11.962;2023-08-30T03:26:24;13.40;99.90
13336;DHT22;6737;51.480;11.962;2023-08-30T03:28:50;13.40;99.90
13336;DHT22;6737;51.480;11.962;2023-08-30T03:31:17;13.30;99.90
13336;DHT22;6737;51.480;11.962;2023-08-30T03:33:44;13.30;99.90
13336;DHT22;6737;51.480;11.962;2023-08-30T03:36:11;13.30;99.90
13336;DHT22;6737;51.480;11.962;2023-08-30T03:38:38;13.30;99.90
13336;DHT22;6737;51.480;11.962;2023-08-30T03:41:04;13.30;99.90
13336;DHT22;6737;51.480;11.962;2023-08-30T03:43:33;13.30;99.90
13336;DHT22;6737;51.480;11.962;2023-08-30T03:46:00;13.30;99.90
13336;DHT22;6737;51.480;11.962;2023-08-30T03:48:27;13.30;99.90
13336;DHT22;6737;51.480;11.962;2023-08-30T03:50:54;13.30;99.90
13336;DHT22;6737;51.480;11.962;2023-08-30T03:53:21;13.30;99.90
13336;DHT22;6737;51.480;11.962;2023-08-30T03:55:47;13.30;99.90
13336;DHT22;6737;51.480;11.962;2023-08-30T03:58:12;13.30;99.90
13336;DHT22;6737;51.480;11.962;2023-08-30T04:00:39;13.30;99.90
13336;DHT22;6737;51.480;11.962;2023-08-30T04:03:07;13.30;99.90
13336;DHT22;6737;51.480;11.962;2023-08-30T04:05:35;13.30;99.90
13336;DHT22;6737;51.480;11.962;2023-08-30T04:08:02;13.40;99.90
13336;DHT22;6737;51.480;11.962;2023-08-30T04:10:28;13.30;99.90
13336;DHT22;6737;51.480;11.962;2023-08-30T04:12:53;13.20;99.90
13336;DHT22;6737;51.480;11.962;2023-08-30T04:15:19;13.20;99.90
13336;DHT22;6737;51.480;11.962;2023-08-30T04:17:45;13.20;99.90
13336;DHT22;6737;51.480;11.962;2023-08-30T04:20:11;13.20;99.90
13336;DHT22;6737;51.480;11.962;2023-08-30T04:22:37;13.30;99.90
13336;DHT22;6737;51.480;11.962;2023-08-30T04:25:04;13.30;99.90
13336;DHT22;6737;51.480;11.962;2023-08-30T04:27:30;13.20;99.90
13336;DHT22;6737;51.480;11.962;2023-08-30T04:29:56;13.20;99.90
13336;DHT22;6737;51.480;11.962;2023-08-30T04:32:22;13.20;99.90
13336;DHT22;6737;51.480;11.962;2023-08-30T04:34:48;13.20;99.90
13336;DHT22;6737;51.480;11.962;2023-08-30T04:37:13;13.20;99.90
13336;DHT22;6737;51.480;11.962;2023-08-30T04:39:40;13.20;99.90
13336;DHT22;6737;51.480;11.962;2023-08-30T04:42:06;13.10;99.90
13336;DHT22;6737;51.480;11.962;2023-08-30T04:44:31;13.20;99.90
13336;DHT22;6737;51.480;11.962;2023-08-30T04:46:57;13.20;99.90
13336;DHT22;6737;51.480;11.962;2023-08-30T04:49:23;13.10;99.90
13336;DHT22;6737;51.480;11.962;2023-08-30T04:51:51;13.10;99.90
13336;DHT22;6737;51.480;11.962;2023-08-30T04:54:17;13.20;99.90
13336;DHT22;6737;51.480;11.962;2023-08-30T04:56:42;13.20;99.90
13336;DHT22;6737;51.480;11.962;2023-08-30T04:59:08;13.20;99.90
13336;DHT22;6737;51.480;11.962;2023-08-30T05:01:34;13.20;99.90
13336;DHT22;6737;51.480;11.962;2023-08-30T05:04:00;13.20;99.90
13336;DHT22;6737;51.480;11.962;2023-08-30T05:06:26;13.20;99.90
13336;DHT22;6737;51.480;11.962;2023-08-30T05:08:52;13.20;99.90
13336;DHT22;6737;51.480;11.962;2023-08-30T05:11:18;13.30;99.90
13336;DHT22;6737;51.480;11.962;2023-08-30T05:13:43;13.20;99.90
13336;DHT22;6737;51.480;11.962;2023-08-30T05:16:09;13.20;99.90
13336;DHT22;6737;51.480;11.962;2023-08-30T05:18:35;13.30;99.90
13336;DHT22;6737;51.480;11.962;2023-08-30T05:21:01;13.30;99.90
13336;DHT22;6737;51.480;11.962;2023-08-30T05:23:29;13.20;99.90
13336;DHT22;6737;51.480;11.962;2023-08-30T05:25:55;13.20;99.90
13336;DHT22;6737;51.480;11.962;2023-08-30T05:28:20;13.20;99.90
13336;DHT22;6737;51.480;11.962;2023-08-30T05:30:46;13.20;99.90
13336;DHT22;6737;51.480;11.962;2023-08-30T05:33:12;13.20;99.90
13336;DHT22;6737;51.480;11.962;2023-08-30T05:35:37;13.30;99.90
13336;DHT22;6737;51.480;11.962;2023-08-30T05:38:03;13.30;99.90
13336;DHT22;6737;51.480;11.962;2023-08-30T05:40:29;13.30;99.90
13336;DHT22;6737;51.480;11.962;2023-08-30T05:42:55;13.30;99.90
13336;DHT22;6737;51.480;11.962;2023-08-30T05:45:21;13.40;99.90
13336;DHT22;6737;51.480;11.962;2023-08-30T05:47:46;13.40;99.90
13336;DHT22;6737;51.480;11.962;2023-08-30T05:50:13;13.40;99.90
13336;DHT22;6737;51.480;11.962;2023-08-30T05:52:39;13.50;99.90
13336;DHT22;6737;51.480;11.962;2023-08-30T05:55:10;13.50;99.90
13336;DHT22;6737;51.480;11.962;2023-08-30T05:57:36;13.60;99.90
13336;DHT22;6737;51.480;11.962;2023-08-30T06:00:03;13.60;99.90
13336;DHT22;6737;51.480;11.962;2023-08-30T06:02:30;13.60;99.90
13336;DHT22;6737;51.480;11.962;2023-08-30T06:04:56;13.60;99.90
13336;DHT22;6737;51.480;11.962;2023-08-30T06:07:22;13.70;99.90
13336;DHT22;6737;51.480;11.962;2023-08-30T06:09:47;13.70;99.90
13336;DHT22;6737;51.480;11.962;2023-08-30T06:12:13;13.70;99.90
13336;DHT22;6737;51.480;11.962;2023-08-30T06:14:39;13.80;99.90
13336;DHT22;6737;51.480;11.962;2023-08-30T06:17:05;13.80;99.90
13336;DHT22;6737;51.480;11.962;2023-08-30T06:19:31;13.80;99.90
13336;DHT22;6737;51.480;11.962;2023-08-30T06:21:56;13.90;99.90
13336;DHT22;6737;51.480;11.962;2023-08-30T06:24:22;13.80;99.90
13336;DHT22;6737;51.480;11.962;2023-08-30T06:26:48;13.80;99.90
13336;DHT22;6737;51.480;11.962;2023-08-30T06:29:13;13.80;99.90
13336;DHT22;6737;51.480;11.962;2023-08-30T06:31:39;13.90;99.90
13336;DHT22;6737;51.480;11.962;2023-08-30T06:34:07;13.90;99.90
13336;DHT22;6737;51.480;11.962;2023-08-30T06:36:33;14.00;99.90
13336;DHT22;6737;51.480;11.962;2023-08-30T06:38:58;14.10;99.90
13336;DHT22;6737;51.480;11.962;2023-08-30T06:41:24;14.20;99.90
13336;DHT22;6737;51.480;11.962;2023-08-30T06:43:50;14.20;99.90
13336;DHT22;6737;51.480;11.962;2023-08-30T06:46:15;14.30;99.90
13336;DHT22;6737;51.480;11.962;2023-08-30T06:48:41;14.30;99.90
13336;DHT22;6737;51.480;11.962;2023-08-30T06:51:07;14.30;99.90
13336;DHT22;6737;51.480;11.962;2023-08-30T06:53:33;14.40;99.90
13336;DHT22;6737;51.480;11.962;2023-08-30T06:55:59;14.60;99.90
13336;DHT22;6737;51.480;11.962;2023-08-30T06:58:26;14.70;99.90
13336;DHT22;6737;51.480;11.962;2023-08-30T07:00:53;14.80;99.90
13336;DHT22;6737;51.480;11.962;2023-08-30T07:03:19;14.90;99.90
13336;DHT22;6737;51.480;11.962;2023-08-30T07:05:45;15.00;99.90
13336;DHT22;6737;51.480;11.962;2023-08-30T07:08:14;15.10;99.90
13336;DHT22;6737;51.480;11.962;2023-08-30T07:10:40;15.20;99.90
13336;DHT22;6737;51.480;11.962;2023-08-30T07:13:06;15.30;99.90
13336;DHT22;6737;51.480;11.962;2023-08-30T07:15:39;15.40;99.90
13336;DHT22;6737;51.480;11.962;2023-08-30T07:18:06;15.50;99.90
13336;DHT22;6737;51.480;11.962;2023-08-30T07:20:32;15.60;99.90
13336;DHT22;6737;51.480;11.962;2023-08-30T07:22:58;15.70;99.90
13336;DHT22;6737;51.480;11.962;2023-08-30T07:25:24;15.70;99.90
13336;DHT22;6737;51.480;11.962;2023-08-30T07:27:50;15.70;99.90
13336;DHT22;6737;51.480;11.962;2023-08-30T07:30:16;15.70;99.90
13336;DHT22;6737;51.480;11.962;2023-08-30T07:32:41;15.70;99.90
13336;DHT22;6737;51.480;11.962;2023-08-30T07:35:08;15.80;99.90
13336;DHT22;6737;51.480;11.962;2023-08-30T07:37:34;15.90;99.90
13336;DHT22;6737;51.480;11.962;2023-08-30T07:40:01;15.90;99.90
13336;DHT22;6737;51.480;11.962;2023-08-30T07:42:30;16.00;99.90
13336;DHT22;6737;51.480;11.962;2023-08-30T07:44:56;16.10;99.90
13336;DHT22;6737;51.480;11.962;2023-08-30T07:47:21;16.20;99.90
13336;DHT22;6737;51.480;11.962;2023-08-30T07:49:47;16.30;99.90
13336;DHT22;6737;51.480;11.962;2023-08-30T07:52:13;16.30;99.90
13336;DHT22;6737;51.480;11.962;2023-08-30T07:54:40;16.40;99.90
13336;DHT22;6737;51.480;11.962;2023-08-30T07:57:06;16.50;99.90
13336;DHT22;6737;51.480;11.962;2023-08-30T07:59:38;16.60;99.90
13336;DHT22;6737;51.480;11.962;2023-08-30T08:02:07;16.70;99.90
13336;DHT22;6737;51.480;11.962;2023-08-30T08:04:36;16.70;99.90
13336;DHT22;6737;51.480;11.962;2023-08-30T08:07:02;16.70;99.90
13336;DHT22;6737;51.480;11.962;2023-08-30T08:09:29;16.80;99.90
13336;DHT22;6737;51.480;11.962;2023-08-30T08:11:55;16.80;99.90
13336;DHT22;6737;51.480;11.962;2023-08-30T08:14:25;16.90;99.90
13336;DHT22;6737;51.480;11.962;2023-08-30T08:16:51;17.00;99.90
13336;DHT22;6737;51.480;11.962;2023-08-30T08:19:17;17.00;99.90
13336;DHT22;6737;51.480;11.962;2023-08-30T08:21:42;17.20;99.90
13336;DHT22;6737;51.480;11.962;2023-08-30T08:24:08;17.20;99.90
13336;DHT22;6737;51.480;11.962;2023-08-30T08:26:34;17.20;99.90
13336;DHT22;6737;51.480;11.962;2023-08-30T08:29:00;17.20;99.90
13336;DHT22;6737;51.480;11.962;2023-08-30T08:31:25;17.30;99.90
13336;DHT22;6737;51.480;11.962;2023-08-30T08:34:10;17.30;99.90
13336;DHT22;6737;51.480;11.962;2023-08-30T08:36:37;17.30;99.90
13336;DHT22;6737;51.480;11.962;2023-08-30T08:39:04;17.40;99.90
13336;DHT22;6737;51.480;11.962;2023-08-30T08:41:39;17.40;99.90
13336;DHT22;6737;51.480;11.962;2023-08-30T08:44:06;17.50;99.90
13336;DHT22;6737;51.480;11.962;2023-08-30T08:46:34;17.50;99.90
13336;DHT22;6737;51.480;11.962;2023-08-30T08:49:08;17.60;99.90
13336;DHT22;6737;51.480;11.962;2023-08-30T08:51:35;17.60;99.90
13336;DHT22;6737;51.480;11.962;2023-08-30T08:54:03;17.60;99.90
13336;DHT22;6737;51.480;11.962;2023-08-30T08:56:31;17.60;99.90
13336;DHT22;6737;51.480;11.962;2023-08-30T08:58:58;17.70;99.90
13336;DHT22;6737;51.480;11.962;2023-08-30T09:01:25;17.70;99.90
13336;DHT22;6737;51.480;11.962;2023-08-30T09:03:51;17.80;99.90
13336;DHT22;6737;51.480;11.962;2023-08-30T09:06:18;17.90;99.90
13336;DHT22;6737;51.480;11.962;2023-08-30T09:08:44;17.90;99.90
13336;DHT22;6737;51.480;11.962;2023-08-30T09:11:10;18.00;99.90
13336;DHT22;6737;51.480;11.962;2023-08-30T09:13:36;18.10;99.90
13336;DHT22;6737;51.480;11.962;2023-08-30T09:16:02;18.20;99.90
13336;DHT22;6737;51.480;11.962;2023-08-30T09:18:31;18.20;99.90
13336;DHT22;6737;51.480;11.962;2023-08-30T09:21:09;18.20;99.90
13336;DHT22;6737;51.480;11.962;2023-08-30T09:23:36;18.20;99.90
13336;DHT22;6737;51.480;11.962;2023-08-30T09:26:03;18.20;99.90
13336;DHT22;6737;51.480;11.962;2023-08-30T09:28:29;18.30;99.90
13336;DHT22;6737;51.480;11.962;2023-08-30T09:30:58;18.30;99.90
13336;DHT22;6737;51.480;11.962;2023-08-30T09:33:31;18.40;99.90
13336;DHT22;6737;51.480;11.962;2023-08-30T09:36:00;18.50;99.90
13336;DHT22;6737;51.480;11.962;2023-08-30T09:38:26;18.60;99.90
13336;DHT22;6737;51.480;11.962;2023-08-30T09:41:03;18.60;99.90
13336;DHT22;6737;51.480;11.962;2023-08-30T09:43:29;18.60;99.90
13336;DHT22;6737;51.480;11.962;2023-08-30T09:45:55;18.50;99.90
13336;DHT22;6737;51.480;11.962;2023-08-30T09:48:27;18.40;99.90
13336;DHT22;6737;51.480;11.962;2023-08-30T09:50:54;18.40;99.90
13336;DHT22;6737;51.480;11.962;2023-08-30T09:53:25;18.40;99.90
13336;DHT22;6737;51.480;11.962;2023-08-30T09:55:54;18.30;99.90
13336;DHT22;6737;51.480;11.962;2023-08-30T09:58:23;18.30;99.90
13336;DHT22;6737;51.480;11.962;2023-08-30T10:00:51;18.40;99.90
13336;DHT22;6737;51.480;11.962;2023-08-30T10:03:17;18.30;99.90
13336;DHT22;6737;51.480;11.962;2023-08-30T10:05:45;18.40;99.90
13336;DHT22;6737;51.480;11.962;2023-08-30T10:08:12;18.40;99.90
13336;DHT22;6737;51.480;11.962;2023-08-30T10:10:39;18.40;99.90
13336;DHT22;6737;51.480;11.962;2023-08-30T10:13:06;18.40;99.90
13336;DHT22;6737;51.480;11.962;2023-08-30T10:15:40;18.40;99.90
13336;DHT22;6737;51.480;11.962;2023-08-30T10:18:07;18.40;99.90
13336;DHT22;6737;51.480;11.962;2023-08-30T10:20:36;18.40;99.90
13336;DHT22;6737;51.480;11.962;2023-08-30T10:23:04;18.30;99.90
13336;DHT22;6737;51.480;11.962;2023-08-30T10:25:31;18.30;99.90
13336;DHT22;6737;51.480;11.962;2023-08-30T10:27:58;18.30;99.90
13336;DHT22;6737;51.480;11.962;2023-08-30T10:30:25;18.40;99.90
13336;DHT22;6737;51.480;11.962;2023-08-30T10:32:51;18.50;99.90
13336;DHT22;6737;51.480;11.962;2023-08-30T10:35:18;18.50;99.90
13336;DHT22;6737;51.480;11.962;2023-08-30T10:37:59;18.50;99.90
13336;DHT22;6737;51.480;11.962;2023-08-30T10:40:25;18.60;99.90
13336;DHT22;6737;51.480;11.962;2023-08-30T10:43:04;18.70;99.90
13336;DHT22;6737;51.480;11.962;2023-08-30T10:45:30;18.80;99.90
13336;DHT22;6737;51.480;11.962;2023-08-30T10:47:58;18.90;99.90
13336;DHT22;6737;51.480;11.962;2023-08-30T10:50:31;19.00;99.90
13336;DHT22;6737;51.480;11.962;2023-08-30T10:52:58;19.00;99.90
13336;DHT22;6737;51.480;11.962;2023-08-30T10:55:24;19.00;99.90
13336;DHT22;6737;51.480;11.962;2023-08-30T10:58:02;19.00;99.90
13336;DHT22;6737;51.480;11.962;2023-08-30T11:00:29;19.00;99.90
13336;DHT22;6737;51.480;11.962;2023-08-30T11:02:56;19.00;99.90
13336;DHT22;6737;51.480;11.962;2023-08-30T11:05:26;19.10;99.90
13336;DHT22;6737;51.480;11.962;2023-08-30T11:07:53;19.20;99.90
13336;DHT22;6737;51.480;11.962;2023-08-30T11:10:20;19.30;99.90
13336;DHT22;6737;51.480;11.962;2023-08-30T11:12:48;19.40;99.90
13336;DHT22;6737;51.480;11.962;2023-08-30T11:15:17;19.50;99.90
13336;DHT22;6737;51.480;11.962;2023-08-30T11:17:43;19.50;99.90
13336;DHT22;6737;51.480;11.962;2023-08-30T11:20:11;19.60;99.90
13336;DHT22;6737;51.480;11.962;2023-08-30T11:22:59;19.70;99.90
13336;DHT22;6737;51.480;11.962;2023-08-30T11:25:24;19.90;99.90
13336;DHT22;6737;51.480;11.962;2023-08-30T11:27:51;19.90;99.90
13336;DHT22;6737;51.480;11.962;2023-08-30T11:30:27;19.80;99.90
13336;DHT22;6737;51.480;11.962;2023-08-30T11:32:52;19.70;99.90
13336;DHT22;6737;51.480;11.962;2023-08-30T11:35:22;19.60;99.90
13336;DHT22;6737;51.480;11.962;2023-08-30T11:37:48;19.60;99.90
13336;DHT22;6737;51.480;11.962;2023-08-30T11:40:15;19.50;99.90
13336;DHT22;6737;51.480;11.962;2023-08-30T11:42:41;19.60;99.90
13336;DHT22;6737;51.480;11.962;2023-08-30T11:45:09;19.60;99.90
13336;DHT22;6737;51.480;11.962;2023-08-30T11:47:36;19.70;99.90
13336;DHT22;6737;51.480;11.962;2023-08-30T11:50:02;19.80;99.90
13336;DHT22;6737;51.480;11.962;2023-08-30T11:52:29;19.80;99.90
13336;DHT22;6737;51.480;11.962;2023-08-30T11:54:56;19.70;99.90
13336;DHT22;6737;51.480;11.962;2023-08-30T11:57:22;19.70;99.90
13336;DHT22;6737;51.480;11.962;2023-08-30T11:59:48;19.70;99.90
13336;DHT22;6737;51.480;11.962;2023-08-30T12:02:16;19.80;99.90
13336;DHT22;6737;51.480;11.962;2023-08-30T12:04:44;19.80;99.90
13336;DHT22;6737;51.480;11.962;2023-08-30T12:07:25;19.70;99.90
13336;DHT22;6737;51.480;11.962;2023-08-30T12:09:52;19.60;99.90
13336;DHT22;6737;51.480;11.962;2023-08-30T12:12:17;19.60;99.90
13336;DHT22;6737;51.480;11.962;2023-08-30T12:14:43;19.50;99.90
13336;DHT22;6737;51.480;11.962;2023-08-30T12:17:09;19.50;99.90
13336;DHT22;6737;51.480;11.962;2023-08-30T12:19:38;19.50;99.90
13336;DHT22;6737;51.480;11.962;2023-08-30T12:22:06;19.60;99.90
13336;DHT22;6737;51.480;11.962;2023-08-30T12:24:46;19.60;99.90
13336;DHT22;6737;51.480;11.962;2023-08-30T12:27:13;19.60;99.90
13336;DHT22;6737;51.480;11.962;2023-08-30T12:29:39;19.60;99.90
13336;DHT22;6737;51.480;11.962;2023-08-30T12:32:06;19.50;99.90
13336;DHT22;6737;51.480;11.962;2023-08-30T12:34:34;19.60;99.90
13336;DHT22;6737;51.480;11.962;2023-08-30T12:37:00;19.60;99.90
13336;DHT22;6737;51.480;11.962;2023-08-30T12:39:27;19.70;99.90
13336;DHT22;6737;51.480;11.962;2023-08-30T12:41:53;19.70;99.90
13336;DHT22;6737;51.480;11.962;2023-08-30T12:44:19;19.80;99.90
13336;DHT22;6737;51.480;11.962;2023-08-30T12:46:45;19.80;99.90
13336;DHT22;6737;51.480;11.962;2023-08-30T12:49:11;19.80;99.90
13336;DHT22;6737;51.480;11.962;2023-08-30T12:51:36;19.80;99.90
13336;DHT22;6737;51.480;11.962;2023-08-30T12:54:02;19.80;99.90
13336;DHT22;6737;51.480;11.962;2023-08-30T12:56:28;19.80;99.90
13336;DHT22;6737;51.480;11.962;2023-08-30T12:58:54;19.80;99.90
13336;DHT22;6737;51.480;11.962;2023-08-30T13:01:20;19.80;99.90
13336;DHT22;6737;51.480;11.962;2023-08-30T13:03:46;19.80;99.90
13336;DHT22;6737;51.480;11.962;2023-08-30T13:06:12;19.90;99.90
13336;DHT22;6737;51.480;11.962;2023-08-30T13:08:37;19.90;99.90
13336;DHT22;6737;51.480;11.962;2023-08-30T13:11:03;19.90;99.90
13336;DHT22;6737;51.480;11.962;2023-08-30T13:13:29;19.90;99.90
13336;DHT22;6737;51.480;11.962;2023-08-30T13:15:55;19.90;99.90
13336;DHT22;6737;51.480;11.962;2023-08-30T13:18:21;19.90;99.90
13336;DHT22;6737;51.480;11.962;2023-08-30T13:20:47;19.90;99.90
13336;DHT22;6737;51.480;11.962;2023-08-30T13:23:13;19.90;99.90
13336;DHT22;6737;51.480;11.962;2023-08-30T13:25:40;19.90;99.90
13336;DHT22;6737;51.480;11.962;2023-08-30T13:28:06;19.80;99.90
13336;DHT22;6737;51.480;11.962;2023-08-30T13:30:33;19.70;99.90
13336;DHT22;6737;51.480;11.962;2023-08-30T13:32:59;19.70;99.90
13336;DHT22;6737;51.480;11.962;2023-08-30T13:35:25;19.60;99.90
13336;DHT22;6737;51.480;11.962;2023-08-30T13:37:50;19.50;99.90
13336;DHT22;6737;51.480;11.962;2023-08-30T13:40:16;19.50;99.90
13336;DHT22;6737;51.480;11.962;2023-08-30T13:42:43;19.40;99.90
13336;DHT22;6737;51.480;11.962;2023-08-30T13:45:09;19.50;99.90
13336;DHT22;6737;51.480;11.962;2023-08-30T13:47:39;19.60;99.90
13336;DHT22;6737;51.480;11.962;2023-08-30T13:50:05;19.80;99.90
13336;DHT22;6737;51.480;11.962;2023-08-30T13:52:31;19.80;99.90
13336;DHT22;6737;51.480;11.962;2023-08-30T13:54:58;19.90;99.90
13336;DHT22;6737;51.480;11.962;2023-08-30T13:57:24;19.90;99.90
13336;DHT22;6737;51.480;11.962;2023-08-30T13:59:50;19.90;99.90
13336;DHT22;6737;51.480;11.962;2023-08-30T14:02:16;19.90;99.90
13336;DHT22;6737;51.480;11.962;2023-08-30T14:04:42;19.90;99.90
13336;DHT22;6737;51.480;11.962;2023-08-30T14:07:07;19.90;99.90
13336;DHT22;6737;51.480;11.962;2023-08-30T14:09:34;19.80;99.90
13336;DHT22;6737;51.480;11.962;2023-08-30T14:12:00;19.80;99.90
13336;DHT22;6737;51.480;11.962;2023-08-30T14:14:29;19.80;99.90
13336;DHT22;6737;51.480;11.962;2023-08-30T14:16:55;19.70;99.90
13336;DHT22;6737;51.480;11.962;2023-08-30T14:19:21;19.70;99.90
13336;DHT22;6737;51.480;11.962;2023-08-30T14:21:47;19.60;99.90
13336;DHT22;6737;51.480;11.962;2023-08-30T14:24:12;19.60;99.90
13336;DHT22;6737;51.480;11.962;2023-08-30T14:26:38;19.60;99.90
13336;DHT22;6737;51.480;11.962;2023-08-30T14:29:04;19.60;99.90
13336;DHT22;6737;51.480;11.962;2023-08-30T14:31:30;19.70;99.90
13336;DHT22;6737;51.480;11.962;2023-08-30T14:33:56;19.70;99.90
13336;DHT22;6737;51.480;11.962;2023-08-30T14:36:25;19.80;99.90
13336;DHT22;6737;51.480;11.962;2023-08-30T14:38:50;19.80;99.90
13336;DHT22;6737;51.480;11.962;2023-08-30T14:41:16;19.80;99.90
13336;DHT22;6737;51.480;11.962;2023-08-30T14:43:43;19.80;99.90
13336;DHT22;6737;51.480;11.962;2023-08-30T14:46:09;19.80;99.90
13336;DHT22;6737;51.480;11.962;2023-08-30T14:48:35;19.70;99.90
13336;DHT22;6737;51.480;11.962;2023-08-30T14:51:04;19.60;99.90
13336;DHT22;6737;51.480;11.962;2023-08-30T14:53:30;19.60;99.90
13336;DHT22;6737;51.480;11.962;2023-08-30T14:55:56;19.50;99.90
13336;DHT22;6737;51.480;11.962;2023-08-30T14:58:22;19.50;99.90
13336;DHT22;6737;51.480;11.962;2023-08-30T15:00:48;19.60;99.90
13336;DHT22;6737;51.480;11.962;2023-08-30T15:03:14;19.50;99.90
13336;DHT22;6737;51.480;11.962;2023-08-30T15:05:41;19.50;99.90
13336;DHT22;6737;51.480;11.962;2023-08-30T15:08:07;19.50;99.90
13336;DHT22;6737;51.480;11.962;2023-08-30T15:10:33;19.50;99.90
13336;DHT22;6737;51.480;11.962;2023-08-30T15:12:58;19.40;99.90
13336;DHT22;6737;51.480;11.962;2023-08-30T15:15:24;19.40;99.90
13336;DHT22;6737;51.480;11.962;2023-08-30T15:17:50;19.40;99.90
13336;DHT22;6737;51.480;11.962;2023-08-30T15:20:16;19.40;99.90
13336;DHT22;6737;51.480;11.962;2023-08-30T15:22:42;19.30;99.90
13336;DHT22;6737;51.480;11.962;2023-08-30T15:25:08;19.30;99.90
13336;DHT22;6737;51.480;11.962;2023-08-30T15:27:34;19.30;99.90
13336;DHT22;6737;51.480;11.962;2023-08-30T15:30:00;19.20;99.90
13336;DHT22;6737;51.480;11.962;2023-08-30T15:32:26;19.20;99.90
13336;DHT22;6737;51.480;11.962;2023-08-30T15:34:54;19.20;99.90